Wollongong, Australia
Current Conditions -  °F | °C
As of 7:00 PM on Friday 24 Oct 2014 (Local Time) from YSSY Reporting Station
Broken Clouds Broken Clouds  
Wind Chill: 73°   Ceiling: 25000
Heat Index: 73°   Visibility: 6mi
Dew Point: 63°   Wind: 25mph
Humidity: 69%   Direction: 40°NE
Pressure: 29.88"   Gusts: NA
Location:  34.43°S, 150.9°E
Report Text: YSSY 240800Z 04022KT 9999 FEW040 BKN250 23/17 Q1012 NOSIG
Loading
Personal Weather Stations






























Interactive Weather Map New forecast layout! Learn more

10-Day Weather Forecast

Advertisements
Track Severe Weather on mobile